WSSS

Singapore Changi International Airport

Singapore, Singapore
METAR WSSS 130230Z 31004KT 270V070 9999 SCT016 FEW017TCU BKN280 28/24 Q1013 NOSIG
Observed Flight Rules
Dec-13 @ 02:30 UTC (19 minutes ago) Visual Flight Rules
Wind Visibility Clouds
310° at 4 knots 10,000+ meters
  • Scattered at 1,600' AGL
  • Few at 1,700' AGL
  • Broken at 28,000' AGL
Temperatures Readings
Current 28°C / 82°F
Dewpoint 24°C / 75°F
Humidity 79%
Altimeter 29.91" Hg
Pressure 1013 hPa
Elevation 16
METAR WSSS 130230Z 31004KT 270V070 9999 SCT016 FEW017TCU BKN280 28/24 Q1013 NOSIG
Observed Flight Rules
Dec-13 @ 02:30 UTC
(19 minutes ago)
VFR
Wind Visibility
310° at 4 knots 10,000+ meters
Clouds
  • Scattered at 1,600' AGL
  • Few at 1,700' AGL
  • Broken at 28,000' AGL
Temperature Dewpoint
28°C / 82°F 24°C / 75°F
Humidity Altimeter Pressure
79% 29.91" Hg 1013 hPa